sensor_id;sensor_type;location;lat;lon;timestamp;temperature;humidity
39825;DHT22;25503;52.532;13.640;2023-03-21T00:01:42;9.40;99.90
39825;DHT22;25503;52.532;13.640;2023-03-21T00:04:07;9.30;99.90
39825;DHT22;25503;52.532;13.640;2023-03-21T00:06:36;9.30;99.90
39825;DHT22;25503;52.532;13.640;2023-03-21T00:09:03;9.30;99.90
39825;DHT22;25503;52.532;13.640;2023-03-21T00:11:28;9.30;99.90
39825;DHT22;25503;52.532;13.640;2023-03-21T00:13:54;9.20;99.90
39825;DHT22;25503;52.532;13.640;2023-03-21T00:16:26;9.30;99.90
39825;DHT22;25503;52.532;13.640;2023-03-21T00:18:53;9.20;99.90
39825;DHT22;25503;52.532;13.640;2023-03-21T00:21:21;9.20;99.90
39825;DHT22;25503;52.532;13.640;2023-03-21T00:23:54;9.20;99.90
39825;DHT22;25503;52.532;13.640;2023-03-21T00:26:23;9.20;99.90
39825;DHT22;25503;52.532;13.640;2023-03-21T00:28:49;9.20;99.90
39825;DHT22;25503;52.532;13.640;2023-03-21T00:31:16;9.30;99.90
39825;DHT22;25503;52.532;13.640;2023-03-21T00:33:42;9.20;99.90
39825;DHT22;25503;52.532;13.640;2023-03-21T00:36:10;9.20;99.90
39825;DHT22;25503;52.532;13.640;2023-03-21T00:38:37;9.20;99.90
39825;DHT22;25503;52.532;13.640;2023-03-21T00:41:04;9.20;99.90
39825;DHT22;25503;52.532;13.640;2023-03-21T00:43:30;9.20;99.90
39825;DHT22;25503;52.532;13.640;2023-03-21T00:45:58;9.20;99.90
39825;DHT22;25503;52.532;13.640;2023-03-21T00:48:25;9.20;99.90
39825;DHT22;25503;52.532;13.640;2023-03-21T00:50:52;9.20;99.90
39825;DHT22;25503;52.532;13.640;2023-03-21T00:53:19;9.20;99.90
39825;DHT22;25503;52.532;13.640;2023-03-21T00:55:48;9.20;99.90
39825;DHT22;25503;52.532;13.640;2023-03-21T00:58:14;9.10;99.90
39825;DHT22;25503;52.532;13.640;2023-03-21T01:00:44;9.10;99.90
39825;DHT22;25503;52.532;13.640;2023-03-21T01:03:14;9.10;99.90
39825;DHT22;25503;52.532;13.640;2023-03-21T01:05:43;9.10;99.90
39825;DHT22;25503;52.532;13.640;2023-03-21T01:08:35;9.10;99.90
39825;DHT22;25503;52.532;13.640;2023-03-21T01:11:07;9.10;99.90
39825;DHT22;25503;52.532;13.640;2023-03-21T01:13:34;9.10;99.90
39825;DHT22;25503;52.532;13.640;2023-03-21T01:16:00;9.10;99.90
39825;DHT22;25503;52.532;13.640;2023-03-21T01:18:30;9.10;99.90
39825;DHT22;25503;52.532;13.640;2023-03-21T01:20:58;9.10;99.90
39825;DHT22;25503;52.532;13.640;2023-03-21T01:23:25;9.10;99.90
39825;DHT22;25503;52.532;13.640;2023-03-21T01:25:52;9.10;99.90
39825;DHT22;25503;52.532;13.640;2023-03-21T01:28:24;9.00;99.90
39825;DHT22;25503;52.532;13.640;2023-03-21T01:30:51;9.10;99.90
39825;DHT22;25503;52.532;13.640;2023-03-21T01:33:18;9.00;99.90
39825;DHT22;25503;52.532;13.640;2023-03-21T01:35:44;9.00;99.90
39825;DHT22;25503;52.532;13.640;2023-03-21T01:38:11;9.00;99.90
39825;DHT22;25503;52.532;13.640;2023-03-21T01:40:38;9.00;99.90
39825;DHT22;25503;52.532;13.640;2023-03-21T01:43:32;9.00;99.90
39825;DHT22;25503;52.532;13.640;2023-03-21T01:46:37;9.00;99.90
39825;DHT22;25503;52.532;13.640;2023-03-21T01:51:34;8.90;99.90
39825;DHT22;25503;52.532;13.640;2023-03-21T01:54:05;8.90;99.90
39825;DHT22;25503;52.532;13.640;2023-03-21T01:56:35;8.90;99.90
39825;DHT22;25503;52.532;13.640;2023-03-21T01:59:10;8.90;99.90
39825;DHT22;25503;52.532;13.640;2023-03-21T02:04:42;8.90;99.90
39825;DHT22;25503;52.532;13.640;2023-03-21T02:07:29;8.80;99.90
39825;DHT22;25503;52.532;13.640;2023-03-21T02:09:57;8.90;99.90
39825;DHT22;25503;52.532;13.640;2023-03-21T02:12:24;8.80;99.90
39825;DHT22;25503;52.532;13.640;2023-03-21T02:14:51;8.80;99.90
39825;DHT22;25503;52.532;13.640;2023-03-21T02:28:24;8.80;99.90
39825;DHT22;25503;52.532;13.640;2023-03-21T02:42:07;8.80;99.90
39825;DHT22;25503;52.532;13.640;2023-03-21T02:44:43;8.80;99.90
39825;DHT22;25503;52.532;13.640;2023-03-21T02:49:48;8.70;99.90
39825;DHT22;25503;52.532;13.640;2023-03-21T02:52:21;8.70;99.90
39825;DHT22;25503;52.532;13.640;2023-03-21T02:54:48;8.70;99.90
39825;DHT22;25503;52.532;13.640;2023-03-21T02:57:17;8.70;99.90
39825;DHT22;25503;52.532;13.640;2023-03-21T02:59:45;8.70;99.90
39825;DHT22;25503;52.532;13.640;2023-03-21T03:02:15;8.70;99.90
39825;DHT22;25503;52.532;13.640;2023-03-21T03:04:42;8.70;99.90
39825;DHT22;25503;52.532;13.640;2023-03-21T03:15:40;8.60;99.90
39825;DHT22;25503;52.532;13.640;2023-03-21T03:23:43;8.60;99.90
39825;DHT22;25503;52.532;13.640;2023-03-21T03:26:36;8.60;99.90
39825;DHT22;25503;52.532;13.640;2023-03-21T03:29:05;8.60;99.90
39825;DHT22;25503;52.532;13.640;2023-03-21T03:32:05;8.60;99.90
39825;DHT22;25503;52.532;13.640;2023-03-21T03:34:41;8.60;99.90
39825;DHT22;25503;52.532;13.640;2023-03-21T03:37:15;8.60;99.90
39825;DHT22;25503;52.532;13.640;2023-03-21T03:42:34;8.60;99.90
39825;DHT22;25503;52.532;13.640;2023-03-21T03:45:02;8.50;99.90
39825;DHT22;25503;52.532;13.640;2023-03-21T03:47:54;8.50;99.90
39825;DHT22;25503;52.532;13.640;2023-03-21T03:50:46;8.50;99.90
39825;DHT22;25503;52.532;13.640;2023-03-21T03:53:19;8.50;99.90
39825;DHT22;25503;52.532;13.640;2023-03-21T03:55:46;8.50;99.90
39825;DHT22;25503;52.532;13.640;2023-03-21T03:58:17;8.50;99.90
39825;DHT22;25503;52.532;13.640;2023-03-21T04:00:44;8.50;99.90
39825;DHT22;25503;52.532;13.640;2023-03-21T04:03:10;8.50;99.90
39825;DHT22;25503;52.532;13.640;2023-03-21T04:05:36;8.50;99.90
39825;DHT22;25503;52.532;13.640;2023-03-21T04:08:01;8.50;99.90
39825;DHT22;25503;52.532;13.640;2023-03-21T04:10:27;8.50;99.90
39825;DHT22;25503;52.532;13.640;2023-03-21T04:12:53;8.40;99.90
39825;DHT22;25503;52.532;13.640;2023-03-21T04:15:21;8.40;99.90
39825;DHT22;25503;52.532;13.640;2023-03-21T04:17:47;8.40;99.90
39825;DHT22;25503;52.532;13.640;2023-03-21T04:20:13;8.40;99.90
39825;DHT22;25503;52.532;13.640;2023-03-21T04:22:39;8.40;99.90
39825;DHT22;25503;52.532;13.640;2023-03-21T04:25:05;8.40;99.90
39825;DHT22;25503;52.532;13.640;2023-03-21T04:27:32;8.40;99.90
39825;DHT22;25503;52.532;13.640;2023-03-21T04:29:58;8.40;99.90
39825;DHT22;25503;52.532;13.640;2023-03-21T04:32:25;8.40;99.90
39825;DHT22;25503;52.532;13.640;2023-03-21T04:34:51;8.30;99.90
39825;DHT22;25503;52.532;13.640;2023-03-21T04:37:20;8.40;99.90
39825;DHT22;25503;52.532;13.640;2023-03-21T04:39:48;8.30;99.90
39825;DHT22;25503;52.532;13.640;2023-03-21T04:42:15;8.30;99.90
39825;DHT22;25503;52.532;13.640;2023-03-21T04:44:47;8.30;99.90
39825;DHT22;25503;52.532;13.640;2023-03-21T04:47:13;8.30;99.90
39825;DHT22;25503;52.532;13.640;2023-03-21T04:49:41;8.30;99.90
39825;DHT22;25503;52.532;13.640;2023-03-21T04:52:07;8.30;99.90
39825;DHT22;25503;52.532;13.640;2023-03-21T04:54:33;8.30;99.90
39825;DHT22;25503;52.532;13.640;2023-03-21T04:56:59;8.30;99.90
39825;DHT22;25503;52.532;13.640;2023-03-21T04:59:25;8.30;99.90
39825;DHT22;25503;52.532;13.640;2023-03-21T05:01:51;8.30;99.90
39825;DHT22;25503;52.532;13.640;2023-03-21T05:04:17;8.30;99.90
39825;DHT22;25503;52.532;13.640;2023-03-21T05:06:44;8.20;99.90
39825;DHT22;25503;52.532;13.640;2023-03-21T05:09:10;8.20;99.90
39825;DHT22;25503;52.532;13.640;2023-03-21T05:11:37;8.20;99.90
39825;DHT22;25503;52.532;13.640;2023-03-21T05:14:09;8.20;99.90
39825;DHT22;25503;52.532;13.640;2023-03-21T05:16:38;8.20;99.90
39825;DHT22;25503;52.532;13.640;2023-03-21T05:19:13;8.20;99.90
39825;DHT22;25503;52.532;13.640;2023-03-21T05:21:40;8.20;99.90
39825;DHT22;25503;52.532;13.640;2023-03-21T05:24:15;8.20;99.90
39825;DHT22;25503;52.532;13.640;2023-03-21T05:26:42;8.20;99.90
39825;DHT22;25503;52.532;13.640;2023-03-21T05:29:09;8.10;99.90
39825;DHT22;25503;52.532;13.640;2023-03-21T05:31:35;8.10;99.90
39825;DHT22;25503;52.532;13.640;2023-03-21T05:34:01;8.10;99.90
39825;DHT22;25503;52.532;13.640;2023-03-21T05:36:27;8.10;99.90
39825;DHT22;25503;52.532;13.640;2023-03-21T05:38:56;8.10;99.90
39825;DHT22;25503;52.532;13.640;2023-03-21T05:41:21;8.10;99.90
39825;DHT22;25503;52.532;13.640;2023-03-21T05:43:47;8.10;99.90
39825;DHT22;25503;52.532;13.640;2023-03-21T05:46:12;8.10;99.90
39825;DHT22;25503;52.532;13.640;2023-03-21T05:48:38;8.10;99.90
39825;DHT22;25503;52.532;13.640;2023-03-21T05:51:04;8.10;99.90
39825;DHT22;25503;52.532;13.640;2023-03-21T05:53:30;8.10;99.90
39825;DHT22;25503;52.532;13.640;2023-03-21T05:55:56;8.10;99.90
39825;DHT22;25503;52.532;13.640;2023-03-21T05:58:22;8.10;99.90
39825;DHT22;25503;52.532;13.640;2023-03-21T06:00:48;8.10;99.90
39825;DHT22;25503;52.532;13.640;2023-03-21T06:03:13;8.00;99.90
39825;DHT22;25503;52.532;13.640;2023-03-21T06:05:41;8.10;99.90
39825;DHT22;25503;52.532;13.640;2023-03-21T06:08:07;8.10;99.90
39825;DHT22;25503;52.532;13.640;2023-03-21T06:10:34;8.10;99.90
39825;DHT22;25503;52.532;13.640;2023-03-21T06:12:59;8.10;99.90
39825;DHT22;25503;52.532;13.640;2023-03-21T06:15:27;8.10;99.90
39825;DHT22;25503;52.532;13.640;2023-03-21T06:17:53;8.10;99.90
39825;DHT22;25503;52.532;13.640;2023-03-21T06:20:19;8.20;99.90
39825;DHT22;25503;52.532;13.640;2023-03-21T06:22:44;8.20;99.90
39825;DHT22;25503;52.532;13.640;2023-03-21T06:25:10;8.20;99.90
39825;DHT22;25503;52.532;13.640;2023-03-21T06:27:36;8.20;99.90
39825;DHT22;25503;52.532;13.640;2023-03-21T06:30:03;8.30;99.90
39825;DHT22;25503;52.532;13.640;2023-03-21T06:32:30;8.30;99.90
39825;DHT22;25503;52.532;13.640;2023-03-21T06:34:56;8.30;99.90
39825;DHT22;25503;52.532;13.640;2023-03-21T06:37:22;8.30;99.90
39825;DHT22;25503;52.532;13.640;2023-03-21T06:39:48;8.30;99.90
39825;DHT22;25503;52.532;13.640;2023-03-21T06:42:14;8.30;99.90
39825;DHT22;25503;52.532;13.640;2023-03-21T06:44:40;8.30;99.90
39825;DHT22;25503;52.532;13.640;2023-03-21T06:47:06;8.40;99.90
39825;DHT22;25503;52.532;13.640;2023-03-21T06:49:32;8.40;99.90
39825;DHT22;25503;52.532;13.640;2023-03-21T06:52:01;8.40;99.90
39825;DHT22;25503;52.532;13.640;2023-03-21T06:54:26;8.40;99.90
39825;DHT22;25503;52.532;13.640;2023-03-21T06:56:52;8.40;99.90
39825;DHT22;25503;52.532;13.640;2023-03-21T06:59:18;8.40;99.90
39825;DHT22;25503;52.532;13.640;2023-03-21T07:01:44;8.40;99.90
39825;DHT22;25503;52.532;13.640;2023-03-21T07:04:13;8.40;99.90
39825;DHT22;25503;52.532;13.640;2023-03-21T07:06:38;8.40;99.90
39825;DHT22;25503;52.532;13.640;2023-03-21T07:09:05;8.40;99.90
39825;DHT22;25503;52.532;13.640;2023-03-21T07:11:31;8.40;99.90
39825;DHT22;25503;52.532;13.640;2023-03-21T07:13:57;8.50;99.90
39825;DHT22;25503;52.532;13.640;2023-03-21T07:16:23;8.50;99.90
39825;DHT22;25503;52.532;13.640;2023-03-21T07:18:49;8.50;99.90
39825;DHT22;25503;52.532;13.640;2023-03-21T07:21:16;8.50;99.90
39825;DHT22;25503;52.532;13.640;2023-03-21T07:23:41;8.50;99.90
39825;DHT22;25503;52.532;13.640;2023-03-21T07:26:10;8.50;99.90
39825;DHT22;25503;52.532;13.640;2023-03-21T07:28:36;8.50;99.90
39825;DHT22;25503;52.532;13.640;2023-03-21T07:31:04;8.50;99.90
39825;DHT22;25503;52.532;13.640;2023-03-21T07:33:31;8.60;99.90
39825;DHT22;25503;52.532;13.640;2023-03-21T07:35:58;8.60;99.90
39825;DHT22;25503;52.532;13.640;2023-03-21T07:38:25;8.60;99.90
39825;DHT22;25503;52.532;13.640;2023-03-21T07:40:51;8.70;99.90
39825;DHT22;25503;52.532;13.640;2023-03-21T07:43:17;8.70;99.90
39825;DHT22;25503;52.532;13.640;2023-03-21T07:45:44;8.70;99.90
39825;DHT22;25503;52.532;13.640;2023-03-21T07:48:11;8.70;99.90
39825;DHT22;25503;52.532;13.640;2023-03-21T07:50:38;8.70;99.90
39825;DHT22;25503;52.532;13.640;2023-03-21T07:53:04;8.70;99.90
39825;DHT22;25503;52.532;13.640;2023-03-21T07:55:30;8.70;99.90
39825;DHT22;25503;52.532;13.640;2023-03-21T07:58:02;8.70;99.90
39825;DHT22;25503;52.532;13.640;2023-03-21T08:00:28;8.70;99.90
39825;DHT22;25503;52.532;13.640;2023-03-21T08:02:55;8.60;99.90
39825;DHT22;25503;52.532;13.640;2023-03-21T08:05:28;8.60;99.90
39825;DHT22;25503;52.532;13.640;2023-03-21T08:07:55;8.60;99.90
39825;DHT22;25503;52.532;13.640;2023-03-21T08:10:21;8.70;99.90
39825;DHT22;25503;52.532;13.640;2023-03-21T08:12:47;8.70;99.90
39825;DHT22;25503;52.532;13.640;2023-03-21T08:15:13;8.60;99.90
39825;DHT22;25503;52.532;13.640;2023-03-21T08:17:39;8.70;99.90
39825;DHT22;25503;52.532;13.640;2023-03-21T08:20:07;8.70;99.90
39825;DHT22;25503;52.532;13.640;2023-03-21T08:22:34;8.70;99.90
39825;DHT22;25503;52.532;13.640;2023-03-21T08:25:00;8.70;99.90
39825;DHT22;25503;52.532;13.640;2023-03-21T08:27:26;8.70;99.90
39825;DHT22;25503;52.532;13.640;2023-03-21T08:29:52;8.60;99.90
39825;DHT22;25503;52.532;13.640;2023-03-21T08:32:35;8.70;99.90
39825;DHT22;25503;52.532;13.640;2023-03-21T08:35:04;8.70;99.90
39825;DHT22;25503;52.532;13.640;2023-03-21T08:37:31;8.70;99.90
39825;DHT22;25503;52.532;13.640;2023-03-21T08:39:57;8.70;99.90
39825;DHT22;25503;52.532;13.640;2023-03-21T08:42:23;8.70;99.90
39825;DHT22;25503;52.532;13.640;2023-03-21T08:44:48;8.80;99.90
39825;DHT22;25503;52.532;13.640;2023-03-21T08:47:15;8.80;99.90
39825;DHT22;25503;52.532;13.640;2023-03-21T08:49:40;8.80;99.90
39825;DHT22;25503;52.532;13.640;2023-03-21T08:52:10;8.80;99.90
39825;DHT22;25503;52.532;13.640;2023-03-21T08:54:39;8.80;99.90
39825;DHT22;25503;52.532;13.640;2023-03-21T08:57:06;8.80;99.90
39825;DHT22;25503;52.532;13.640;2023-03-21T08:59:33;8.90;99.90
39825;DHT22;25503;52.532;13.640;2023-03-21T09:01:58;8.90;99.90
39825;DHT22;25503;52.532;13.640;2023-03-21T09:04:24;9.00;99.90
39825;DHT22;25503;52.532;13.640;2023-03-21T09:06:54;9.00;99.90
39825;DHT22;25503;52.532;13.640;2023-03-21T09:09:20;9.00;99.90
39825;DHT22;25503;52.532;13.640;2023-03-21T09:11:46;9.10;99.90
39825;DHT22;25503;52.532;13.640;2023-03-21T09:14:12;9.10;99.90
39825;DHT22;25503;52.532;13.640;2023-03-21T09:16:38;9.20;99.90
39825;DHT22;25503;52.532;13.640;2023-03-21T09:19:03;9.20;99.90
39825;DHT22;25503;52.532;13.640;2023-03-21T09:21:33;9.20;99.90
39825;DHT22;25503;52.532;13.640;2023-03-21T09:24:03;9.20;99.90
39825;DHT22;25503;52.532;13.640;2023-03-21T09:26:31;9.30;99.90
39825;DHT22;25503;52.532;13.640;2023-03-21T09:28:57;9.30;99.90
39825;DHT22;25503;52.532;13.640;2023-03-21T09:31:23;9.30;99.90
39825;DHT22;25503;52.532;13.640;2023-03-21T09:33:52;9.40;99.90
39825;DHT22;25503;52.532;13.640;2023-03-21T09:36:19;9.40;99.90
39825;DHT22;25503;52.532;13.640;2023-03-21T09:38:49;9.40;99.90
39825;DHT22;25503;52.532;13.640;2023-03-21T09:46:52;9.40;99.90
39825;DHT22;25503;52.532;13.640;2023-03-21T09:49:31;9.40;99.90
39825;DHT22;25503;52.532;13.640;2023-03-21T09:52:02;9.40;99.90
39825;DHT22;25503;52.532;13.640;2023-03-21T09:54:36;9.40;99.90
39825;DHT22;25503;52.532;13.640;2023-03-21T09:57:37;9.40;99.90
39825;DHT22;25503;52.532;13.640;2023-03-21T10:00:09;9.50;99.90
39825;DHT22;25503;52.532;13.640;2023-03-21T10:02:42;9.60;99.90
39825;DHT22;25503;52.532;13.640;2023-03-21T10:05:19;9.60;99.90
39825;DHT22;25503;52.532;13.640;2023-03-21T10:10:29;9.70;99.90
39825;DHT22;25503;52.532;13.640;2023-03-21T10:12:56;9.80;99.90
39825;DHT22;25503;52.532;13.640;2023-03-21T10:15:25;9.80;99.90
39825;DHT22;25503;52.532;13.640;2023-03-21T10:18:03;9.90;99.90
39825;DHT22;25503;52.532;13.640;2023-03-21T10:20:34;10.00;99.90
39825;DHT22;25503;52.532;13.640;2023-03-21T10:23:07;10.00;99.90
39825;DHT22;25503;52.532;13.640;2023-03-21T10:25:36;10.10;99.90
39825;DHT22;25503;52.532;13.640;2023-03-21T10:28:06;10.20;99.90
39825;DHT22;25503;52.532;13.640;2023-03-21T10:31:00;10.30;99.90
39825;DHT22;25503;52.532;13.640;2023-03-21T10:33:47;10.40;99.90
39825;DHT22;25503;52.532;13.640;2023-03-21T10:36:20;10.40;99.90
39825;DHT22;25503;52.532;13.640;2023-03-21T10:38:51;10.40;99.90
39825;DHT22;25503;52.532;13.640;2023-03-21T10:41:17;10.50;99.90
39825;DHT22;25503;52.532;13.640;2023-03-21T10:43:44;10.60;99.90
39825;DHT22;25503;52.532;13.640;2023-03-21T10:46:16;10.60;99.90
39825;DHT22;25503;52.532;13.640;2023-03-21T10:48:50;10.60;99.90
39825;DHT22;25503;52.532;13.640;2023-03-21T10:51:22;10.60;99.90
39825;DHT22;25503;52.532;13.640;2023-03-21T10:53:54;10.60;99.90
39825;DHT22;25503;52.532;13.640;2023-03-21T10:56:29;10.70;99.90
39825;DHT22;25503;52.532;13.640;2023-03-21T10:58:56;10.80;99.90
39825;DHT22;25503;52.532;13.640;2023-03-21T11:01:45;10.80;99.90
39825;DHT22;25503;52.532;13.640;2023-03-21T11:04:21;10.80;99.90
39825;DHT22;25503;52.532;13.640;2023-03-21T11:06:54;10.90;99.90
39825;DHT22;25503;52.532;13.640;2023-03-21T11:09:24;10.90;99.90
39825;DHT22;25503;52.532;13.640;2023-03-21T11:11:53;10.90;99.90
39825;DHT22;25503;52.532;13.640;2023-03-21T11:16:50;10.90;99.90
39825;DHT22;25503;52.532;13.640;2023-03-21T11:19:28;10.90;99.90
39825;DHT22;25503;52.532;13.640;2023-03-21T11:21:56;10.90;99.90
39825;DHT22;25503;52.532;13.640;2023-03-21T11:24:28;10.90;99.90
39825;DHT22;25503;52.532;13.640;2023-03-21T11:26:56;10.90;99.90
39825;DHT22;25503;52.532;13.640;2023-03-21T11:29:29;10.90;99.90
39825;DHT22;25503;52.532;13.640;2023-03-21T11:32:24;10.80;99.90
39825;DHT22;25503;52.532;13.640;2023-03-21T11:34:59;10.80;99.90
39825;DHT22;25503;52.532;13.640;2023-03-21T11:37:26;10.80;99.90
39825;DHT22;25503;52.532;13.640;2023-03-21T11:40:06;10.80;99.90
39825;DHT22;25503;52.532;13.640;2023-03-21T11:42:42;10.80;99.90
39825;DHT22;25503;52.532;13.640;2023-03-21T11:45:23;10.80;99.90
39825;DHT22;25503;52.532;13.640;2023-03-21T11:47:52;10.80;99.90
39825;DHT22;25503;52.532;13.640;2023-03-21T12:15:30;10.90;99.90
39825;DHT22;25503;52.532;13.640;2023-03-21T12:20:58;10.90;99.90
39825;DHT22;25503;52.532;13.640;2023-03-21T12:39:35;11.10;99.90
39825;DHT22;25503;52.532;13.640;2023-03-21T12:45:02;11.30;99.90
39825;DHT22;25503;52.532;13.640;2023-03-21T12:47:31;11.30;99.90
39825;DHT22;25503;52.532;13.640;2023-03-21T12:50:17;11.40;99.90
39825;DHT22;25503;52.532;13.640;2023-03-21T12:52:48;11.50;99.90
39825;DHT22;25503;52.532;13.640;2023-03-21T12:55:21;11.50;99.90
39825;DHT22;25503;52.532;13.640;2023-03-21T12:58:14;11.50;99.90
39825;DHT22;25503;52.532;13.640;2023-03-21T13:00:44;11.50;99.90
39825;DHT22;25503;52.532;13.640;2023-03-21T13:03:23;11.50;99.90
39825;DHT22;25503;52.532;13.640;2023-03-21T13:06:00;11.50;99.90
39825;DHT22;25503;52.532;13.640;2023-03-21T13:10:53;11.60;99.90
39825;DHT22;25503;52.532;13.640;2023-03-21T13:24:49;11.70;99.90
39825;DHT22;25503;52.532;13.640;2023-03-21T13:29:47;11.80;99.90
39825;DHT22;25503;52.532;13.640;2023-03-21T13:32:33;11.70;99.90
39825;DHT22;25503;52.532;13.640;2023-03-21T13:35:12;11.80;99.90
39825;DHT22;25503;52.532;13.640;2023-03-21T13:37:41;11.80;99.90
39825;DHT22;25503;52.532;13.640;2023-03-21T13:43:00;11.90;99.90
39825;DHT22;25503;52.532;13.640;2023-03-21T13:45:50;11.90;99.90
39825;DHT22;25503;52.532;13.640;2023-03-21T13:49:24;11.90;99.90
39825;DHT22;25503;52.532;13.640;2023-03-21T14:00:12;11.90;99.90
39825;DHT22;25503;52.532;13.640;2023-03-21T14:04:43;11.90;99.90
39825;DHT22;25503;52.532;13.640;2023-03-21T14:07:20;11.90;99.90
39825;DHT22;25503;52.532;13.640;2023-03-21T14:09:53;11.90;99.90
39825;DHT22;25503;52.532;13.640;2023-03-21T14:12:25;11.90;99.90
39825;DHT22;25503;52.532;13.640;2023-03-21T14:15:01;11.90;99.90
39825;DHT22;25503;52.532;13.640;2023-03-21T14:17:30;11.90;99.90
39825;DHT22;25503;52.532;13.640;2023-03-21T14:20:28;11.80;99.90
39825;DHT22;25503;52.532;13.640;2023-03-21T14:22:54;11.80;99.90
39825;DHT22;25503;52.532;13.640;2023-03-21T14:25:25;11.80;99.90
39825;DHT22;25503;52.532;13.640;2023-03-21T14:27:57;11.80;99.90
39825;DHT22;25503;52.532;13.640;2023-03-21T14:30:33;11.80;99.90
39825;DHT22;25503;52.532;13.640;2023-03-21T14:33:11;11.80;99.90
39825;DHT22;25503;52.532;13.640;2023-03-21T14:35:40;11.80;99.90
39825;DHT22;25503;52.532;13.640;2023-03-21T14:38:07;11.80;99.90
39825;DHT22;25503;52.532;13.640;2023-03-21T14:40:34;11.90;99.90
39825;DHT22;25503;52.532;13.640;2023-03-21T14:43:06;11.90;99.90
39825;DHT22;25503;52.532;13.640;2023-03-21T14:45:34;11.90;99.90
39825;DHT22;25503;52.532;13.640;2023-03-21T14:50:41;12.00;99.90
39825;DHT22;25503;52.532;13.640;2023-03-21T14:57:07;12.10;99.90
39825;DHT22;25503;52.532;13.640;2023-03-21T14:59:35;12.10;99.90
39825;DHT22;25503;52.532;13.640;2023-03-21T15:02:14;12.10;99.90
39825;DHT22;25503;52.532;13.640;2023-03-21T15:04:43;12.10;99.90
39825;DHT22;25503;52.532;13.640;2023-03-21T15:07:30;12.10;99.90
39825;DHT22;25503;52.532;13.640;2023-03-21T15:10:03;12.10;99.90
39825;DHT22;25503;52.532;13.640;2023-03-21T15:12:34;12.10;99.90
39825;DHT22;25503;52.532;13.640;2023-03-21T15:15:00;12.10;99.90
39825;DHT22;25503;52.532;13.640;2023-03-21T15:17:28;12.20;99.90
39825;DHT22;25503;52.532;13.640;2023-03-21T15:19:54;12.20;99.90
39825;DHT22;25503;52.532;13.640;2023-03-21T15:22:38;12.20;99.90
39825;DHT22;25503;52.532;13.640;2023-03-21T15:25:07;12.30;99.90
39825;DHT22;25503;52.532;13.640;2023-03-21T15:27:42;12.30;99.90
39825;DHT22;25503;52.532;13.640;2023-03-21T15:30:22;12.30;99.90
39825;DHT22;25503;52.532;13.640;2023-03-21T15:32:48;12.30;99.90
39825;DHT22;25503;52.532;13.640;2023-03-21T15:35:58;12.30;99.90
39825;DHT22;25503;52.532;13.640;2023-03-21T15:38:05;12.30;99.90
39825;DHT22;25503;52.532;13.640;2023-03-21T15:40:32;12.30;99.90
39825;DHT22;25503;52.532;13.640;2023-03-21T15:43:06;12.30;99.90
39825;DHT22;25503;52.532;13.640;2023-03-21T15:45:53;12.30;99.90
39825;DHT22;25503;52.532;13.640;2023-03-21T15:48:27;12.30;99.90
39825;DHT22;25503;52.532;13.640;2023-03-21T15:51:00;12.40;99.90
39825;DHT22;25503;52.532;13.640;2023-03-21T15:53:34;12.40;99.90
39825;DHT22;25503;52.532;13.640;2023-03-21T15:56:02;12.40;99.90
39825;DHT22;25503;52.532;13.640;2023-03-21T15:58:48;12.40;99.90
39825;DHT22;25503;52.532;13.640;2023-03-21T16:01:21;12.40;99.90
39825;DHT22;25503;52.532;13.640;2023-03-21T16:04:01;12.40;99.90
39825;DHT22;25503;52.532;13.640;2023-03-21T16:06:34;12.40;99.90
39825;DHT22;25503;52.532;13.640;2023-03-21T16:09:16;12.40;99.90
39825;DHT22;25503;52.532;13.640;2023-03-21T16:11:55;12.40;99.90
39825;DHT22;25503;52.532;13.640;2023-03-21T16:14:23;12.40;99.90
39825;DHT22;25503;52.532;13.640;2023-03-21T16:16:52;12.40;99.90
39825;DHT22;25503;52.532;13.640;2023-03-21T16:19:18;12.40;99.90
39825;DHT22;25503;52.532;13.640;2023-03-21T16:21:44;12.40;99.90
39825;DHT22;25503;52.532;13.640;2023-03-21T16:24:11;12.40;99.90
39825;DHT22;25503;52.532;13.640;2023-03-21T16:26:43;12.30;99.90
39825;DHT22;25503;52.532;13.640;2023-03-21T16:29:16;12.30;99.90
39825;DHT22;25503;52.532;13.640;2023-03-21T16:31:43;12.30;99.90
39825;DHT22;25503;52.532;13.640;2023-03-21T16:34:08;12.30;99.90
39825;DHT22;25503;52.532;13.640;2023-03-21T16:36:38;12.30;99.90
39825;DHT22;25503;52.532;13.640;2023-03-21T16:39:24;12.30;99.90
39825;DHT22;25503;52.532;13.640;2023-03-21T16:41:51;12.30;99.90
39825;DHT22;25503;52.532;13.640;2023-03-21T16:44:18;12.30;99.90
39825;DHT22;25503;52.532;13.640;2023-03-21T16:46:44;12.30;99.90
39825;DHT22;25503;52.532;13.640;2023-03-21T16:49:20;12.20;99.90
39825;DHT22;25503;52.532;13.640;2023-03-21T16:51:48;12.20;99.90
39825;DHT22;25503;52.532;13.640;2023-03-21T16:54:13;12.20;99.90
39825;DHT22;25503;52.532;13.640;2023-03-21T16:56:44;12.20;99.90
39825;DHT22;25503;52.532;13.640;2023-03-21T16:59:12;12.20;99.90
39825;DHT22;25503;52.532;13.640;2023-03-21T17:01:38;12.20;99.90
39825;DHT22;25503;52.532;13.640;2023-03-21T17:04:06;12.20;99.90
39825;DHT22;25503;52.532;13.640;2023-03-21T17:06:38;12.10;99.90
39825;DHT22;25503;52.532;13.640;2023-03-21T17:09:06;12.10;99.90
39825;DHT22;25503;52.532;13.640;2023-03-21T17:11:32;12.10;99.90
39825;DHT22;25503;52.532;13.640;2023-03-21T17:14:01;12.10;99.90
39825;DHT22;25503;52.532;13.640;2023-03-21T17:16:34;12.10;99.90
39825;DHT22;25503;52.532;13.640;2023-03-21T17:19:01;12.00;99.90
39825;DHT22;25503;52.532;13.640;2023-03-21T17:21:29;12.00;99.90
39825;DHT22;25503;52.532;13.640;2023-03-21T17:23:56;12.00;99.90
39825;DHT22;25503;52.532;13.640;2023-03-21T17:26:30;12.00;99.90
39825;DHT22;25503;52.532;13.640;2023-03-21T17:28:56;12.00;99.90
39825;DHT22;25503;52.532;13.640;2023-03-21T17:31:24;12.00;99.90
39825;DHT22;25503;52.532;13.640;2023-03-21T17:33:52;11.90;99.90
39825;DHT22;25503;52.532;13.640;2023-03-21T17:38:55;11.90;99.90
39825;DHT22;25503;52.532;13.640;2023-03-21T17:41:22;11.90;99.90
39825;DHT22;25503;52.532;13.640;2023-03-21T17:43:49;11.90;99.90
39825;DHT22;25503;52.532;13.640;2023-03-21T17:46:21;11.80;99.90
39825;DHT22;25503;52.532;13.640;2023-03-21T17:48:48;11.80;99.90
39825;DHT22;25503;52.532;13.640;2023-03-21T17:51:14;11.80;99.90
39825;DHT22;25503;52.532;13.640;2023-03-21T17:53:45;11.80;99.90
39825;DHT22;25503;52.532;13.640;2023-03-21T17:56:26;11.80;99.90
39825;DHT22;25503;52.532;13.640;2023-03-21T17:58:53;11.70;99.90
39825;DHT22;25503;52.532;13.640;2023-03-21T18:01:18;11.70;99.90
39825;DHT22;25503;52.532;13.640;2023-03-21T18:03:44;11.70;99.90
39825;DHT22;25503;52.532;13.640;2023-03-21T18:06:16;11.70;99.90
39825;DHT22;25503;52.532;13.640;2023-03-21T18:08:42;11.60;99.90